sensor_id;sensor_type;location;lat;lon;timestamp;pressure;altitude;pressure_sealevel;temperature;humidity
40788;BME280;26497;52.494;7.546;2023-05-01T00:00:24;101254.56;;;12.60;57.86
40788;BME280;26497;52.494;7.546;2023-05-01T00:02:52;101260.72;;;12.62;57.66
40788;BME280;26497;52.494;7.546;2023-05-01T00:05:19;101257.22;;;12.55;57.71
40788;BME280;26497;52.494;7.546;2023-05-01T00:07:46;101261.59;;;12.61;57.57
40788;BME280;26497;52.494;7.546;2023-05-01T00:10:13;101251.91;;;12.58;57.45
40788;BME280;26497;52.494;7.546;2023-05-01T00:12:40;101246.63;;;12.49;57.63
40788;BME280;26497;52.494;7.546;2023-05-01T00:15:08;101237.78;;;12.48;57.67
40788;BME280;26497;52.494;7.546;2023-05-01T00:17:37;101244.84;;;12.45;57.65
40788;BME280;26497;52.494;7.546;2023-05-01T00:20:06;101234.25;;;12.46;57.64
40788;BME280;26497;52.494;7.546;2023-05-01T00:22:33;101231.63;;;12.35;57.86
40788;BME280;26497;52.494;7.546;2023-05-01T00:25:00;101231.59;;;12.34;58.02
40788;BME280;26497;52.494;7.546;2023-05-01T00:27:27;101226.31;;;12.32;58.02
40788;BME280;26497;52.494;7.546;2023-05-01T00:29:54;101218.38;;;12.31;58.13
40788;BME280;26497;52.494;7.546;2023-05-01T00:32:21;101223.69;;;12.45;57.75
40788;BME280;26497;52.494;7.546;2023-05-01T00:34:49;101225.44;;;12.47;57.53
40788;BME280;26497;52.494;7.546;2023-05-01T00:37:16;101224.56;;;12.39;57.48
40788;BME280;26497;52.494;7.546;2023-05-01T00:39:43;101213.09;;;12.26;57.63
40788;BME280;26497;52.494;7.546;2023-05-01T00:42:10;101210.41;;;12.15;57.90
40788;BME280;26497;52.494;7.546;2023-05-01T00:44:37;101212.16;;;12.13;57.98
40788;BME280;26497;52.494;7.546;2023-05-01T00:47:04;101208.63;;;12.00;58.21
40788;BME280;26497;52.494;7.546;2023-05-01T00:49:31;101205.13;;;12.11;57.89
40788;BME280;26497;52.494;7.546;2023-05-01T00:52:00;101198.97;;;12.12;58.07
40788;BME280;26497;52.494;7.546;2023-05-01T00:54:27;101196.31;;;12.16;58.05
40788;BME280;26497;52.494;7.546;2023-05-01T00:56:54;101191.00;;;12.05;58.12
40788;BME280;26497;52.494;7.546;2023-05-01T00:59:21;101191.81;;;11.92;58.30
40788;BME280;26497;52.494;7.546;2023-05-01T01:01:49;101186.53;;;11.78;58.76
40788;BME280;26497;52.494;7.546;2023-05-01T01:04:16;101186.53;;;11.83;58.86
40788;BME280;26497;52.494;7.546;2023-05-01T01:06:52;101182.13;;;11.83;58.91
40788;BME280;26497;52.494;7.546;2023-05-01T01:09:34;101182.09;;;11.82;59.00
40788;BME280;26497;52.494;7.546;2023-05-01T01:12:10;101178.56;;;11.76;59.01
40788;BME280;26497;52.494;7.546;2023-05-01T01:14:49;101175.88;;;11.58;59.40
40788;BME280;26497;52.494;7.546;2023-05-01T01:17:26;101169.72;;;11.59;59.76
40788;BME280;26497;52.494;7.546;2023-05-01T01:20:30;101174.94;;;11.45;59.65
40788;BME280;26497;52.494;7.546;2023-05-01T01:23:19;101170.50;;;11.34;60.08
40788;BME280;26497;52.494;7.546;2023-05-01T01:26:02;101160.78;;;11.23;60.47
40788;BME280;26497;52.494;7.546;2023-05-01T01:29:11;101160.75;;;11.21;60.70
40788;BME280;26497;52.494;7.546;2023-05-01T01:31:56;101155.47;;;11.21;60.76
40788;BME280;26497;52.494;7.546;2023-05-01T01:34:32;101146.69;;;11.24;60.93
40788;BME280;26497;52.494;7.546;2023-05-01T01:37:04;101152.91;;;11.36;60.67
40788;BME280;26497;52.494;7.546;2023-05-01T01:39:42;101152.91;;;11.36;60.75
40788;BME280;26497;52.494;7.546;2023-05-01T01:42:17;101149.34;;;11.28;60.99
40788;BME280;26497;52.494;7.546;2023-05-01T01:44:50;101146.72;;;11.36;60.69
40788;BME280;26497;52.494;7.546;2023-05-01T01:47:18;101143.28;;;11.59;59.85
40788;BME280;26497;52.494;7.546;2023-05-01T01:49:50;101132.72;;;11.56;60.21
40788;BME280;26497;52.494;7.546;2023-05-01T01:52:19;101138.00;;;11.57;60.09
40788;BME280;26497;52.494;7.546;2023-05-01T01:54:51;101131.81;;;11.47;60.32
40788;BME280;26497;52.494;7.546;2023-05-01T01:57:21;101131.81;;;11.47;60.53
40788;BME280;26497;52.494;7.546;2023-05-01T01:59:50;101119.50;;;11.59;60.29
40788;BME280;26497;52.494;7.546;2023-05-01T02:02:19;101119.53;;;11.62;60.08
40788;BME280;26497;52.494;7.546;2023-05-01T02:04:49;101114.25;;;11.57;59.96
40788;BME280;26497;52.494;7.546;2023-05-01T02:07:18;101120.38;;;11.51;60.29
40788;BME280;26497;52.494;7.546;2023-05-01T02:09:47;101110.72;;;11.55;59.96
40788;BME280;26497;52.494;7.546;2023-05-01T02:12:17;101107.22;;;11.62;59.54
40788;BME280;26497;52.494;7.546;2023-05-01T02:14:46;101111.56;;;11.49;60.05
40788;BME280;26497;52.494;7.546;2023-05-01T02:17:14;101105.41;;;11.50;60.00
40788;BME280;26497;52.494;7.546;2023-05-01T02:19:42;101103.66;;;11.54;59.61
40788;BME280;26497;52.494;7.546;2023-05-01T02:22:12;101099.22;;;11.48;59.99
40788;BME280;26497;52.494;7.546;2023-05-01T02:24:41;101100.13;;;11.46;59.72
40788;BME280;26497;52.494;7.546;2023-05-01T02:27:14;101094.81;;;11.40;59.64
40788;BME280;26497;52.494;7.546;2023-05-01T02:29:42;101095.66;;;11.34;59.94
40788;BME280;26497;52.494;7.546;2023-05-01T02:32:09;101084.22;;;11.35;60.01
40788;BME280;26497;52.494;7.546;2023-05-01T02:34:37;101088.59;;;11.30;59.89
40788;BME280;26497;52.494;7.546;2023-05-01T02:37:05;101082.44;;;11.26;60.37
40788;BME280;26497;52.494;7.546;2023-05-01T02:39:35;101071.00;;;11.29;59.96
40788;BME280;26497;52.494;7.546;2023-05-01T02:42:03;101070.13;;;11.28;60.16
40788;BME280;26497;52.494;7.546;2023-05-01T02:44:36;101073.66;;;11.19;60.13
40788;BME280;26497;52.494;7.546;2023-05-01T02:47:06;101070.03;;;11.03;60.36
40788;BME280;26497;52.494;7.546;2023-05-01T02:49:36;101066.50;;;11.01;60.64
40788;BME280;26497;52.494;7.546;2023-05-01T02:52:04;101064.75;;;11.03;60.76
40788;BME280;26497;52.494;7.546;2023-05-01T02:54:31;101058.63;;;11.11;60.51
40788;BME280;26497;52.494;7.546;2023-05-01T02:57:02;101058.69;;;11.18;60.21
40788;BME280;26497;52.494;7.546;2023-05-01T02:59:30;101054.25;;;11.14;60.32
40788;BME280;26497;52.494;7.546;2023-05-01T03:01:57;101050.72;;;11.11;60.52
40788;BME280;26497;52.494;7.546;2023-05-01T03:04:24;101041.03;;;11.13;60.28
40788;BME280;26497;52.494;7.546;2023-05-01T03:06:51;101038.41;;;11.13;60.10
40788;BME280;26497;52.494;7.546;2023-05-01T03:09:18;101033.13;;;11.11;60.26
40788;BME280;26497;52.494;7.546;2023-05-01T03:11:45;101027.84;;;11.05;60.34
40788;BME280;26497;52.494;7.546;2023-05-01T03:14:14;101020.78;;;11.05;60.15
40788;BME280;26497;52.494;7.546;2023-05-01T03:16:41;101019.06;;;11.17;59.81
40788;BME280;26497;52.494;7.546;2023-05-01T03:19:09;101019.06;;;11.17;59.70
40788;BME280;26497;52.494;7.546;2023-05-01T03:21:36;101012.00;;;11.05;59.84
40788;BME280;26497;52.494;7.546;2023-05-01T03:24:03;101010.19;;;10.93;60.36
40788;BME280;26497;52.494;7.546;2023-05-01T03:26:30;101015.47;;;10.91;60.20
40788;BME280;26497;52.494;7.546;2023-05-01T03:28:58;101011.03;;;10.81;60.46
40788;BME280;26497;52.494;7.546;2023-05-01T03:31:26;101014.50;;;10.74;60.96
40788;BME280;26497;52.494;7.546;2023-05-01T03:33:53;101005.69;;;10.67;61.22
40788;BME280;26497;52.494;7.546;2023-05-01T03:36:20;101002.16;;;10.67;61.07
40788;BME280;26497;52.494;7.546;2023-05-01T03:38:48;101002.19;;;10.73;60.93
40788;BME280;26497;52.494;7.546;2023-05-01T03:41:15;101010.09;;;10.70;61.29
40788;BME280;26497;52.494;7.546;2023-05-01T03:43:42;101003.94;;;10.69;61.05
40788;BME280;26497;52.494;7.546;2023-05-01T03:46:09;101003.97;;;10.77;61.06
40788;BME280;26497;52.494;7.546;2023-05-01T03:48:37;100993.44;;;10.80;61.01
40788;BME280;26497;52.494;7.546;2023-05-01T03:51:05;100990.78;;;10.80;60.91
40788;BME280;26497;52.494;7.546;2023-05-01T03:53:32;100996.06;;;10.80;60.92
40788;BME280;26497;52.494;7.546;2023-05-01T03:55:58;100982.94;;;10.93;60.63
40788;BME280;26497;52.494;7.546;2023-05-01T03:58:25;100989.09;;;10.91;60.72
40788;BME280;26497;52.494;7.546;2023-05-01T04:00:53;100988.22;;;10.96;60.29
40788;BME280;26497;52.494;7.546;2023-05-01T04:03:21;100987.34;;;11.03;60.09
40788;BME280;26497;52.494;7.546;2023-05-01T04:05:50;100989.09;;;10.98;60.11
40788;BME280;26497;52.494;7.546;2023-05-01T04:08:17;100989.94;;;10.87;60.23
40788;BME280;26497;52.494;7.546;2023-05-01T04:10:44;100990.78;;;10.82;60.66
40788;BME280;26497;52.494;7.546;2023-05-01T04:13:11;100982.91;;;10.86;60.66
40788;BME280;26497;52.494;7.546;2023-05-01T04:15:38;100992.59;;;10.98;60.80
40788;BME280;26497;52.494;7.546;2023-05-01T04:18:05;100979.47;;;11.09;60.66
40788;BME280;26497;52.494;7.546;2023-05-01T04:20:32;100988.28;;;11.27;60.13
40788;BME280;26497;52.494;7.546;2023-05-01T04:23:01;100975.09;;;11.36;59.46
40788;BME280;26497;52.494;7.546;2023-05-01T04:25:28;100974.22;;;11.43;59.37
40788;BME280;26497;52.494;7.546;2023-05-01T04:27:55;100979.53;;;11.51;58.90
40788;BME280;26497;52.494;7.546;2023-05-01T04:30:23;100972.47;;;11.59;58.73
40788;BME280;26497;52.494;7.546;2023-05-01T04:32:49;100974.22;;;11.65;58.71
40788;BME280;26497;52.494;7.546;2023-05-01T04:35:17;100974.25;;;11.76;58.71
40788;BME280;26497;52.494;7.546;2023-05-01T04:37:43;100969.81;;;11.93;57.85
40788;BME280;26497;52.494;7.546;2023-05-01T04:40:12;100966.28;;;12.07;57.49
40788;BME280;26497;52.494;7.546;2023-05-01T04:42:39;100968.03;;;12.20;57.37
40788;BME280;26497;52.494;7.546;2023-05-01T04:45:07;100966.22;;;12.35;56.89
40788;BME280;26497;52.494;7.546;2023-05-01T04:47:34;100968.84;;;12.49;56.48
40788;BME280;26497;52.494;7.546;2023-05-01T04:50:01;100962.59;;;12.62;55.85
40788;BME280;26497;52.494;7.546;2023-05-01T04:52:29;100963.44;;;12.74;55.27
40788;BME280;26497;52.494;7.546;2023-05-01T04:54:56;100959.84;;;12.87;54.96
40788;BME280;26497;52.494;7.546;2023-05-01T04:57:25;100955.38;;;13.00;53.58
40788;BME280;26497;52.494;7.546;2023-05-01T04:59:52;100953.56;;;13.08;53.25
40788;BME280;26497;52.494;7.546;2023-05-01T05:02:18;100959.69;;;13.18;53.05
40788;BME280;26497;52.494;7.546;2023-05-01T05:04:45;100956.91;;;13.32;52.65
40788;BME280;26497;52.494;7.546;2023-05-01T05:07:12;100954.22;;;13.45;52.07
40788;BME280;26497;52.494;7.546;2023-05-01T05:09:39;100963.91;;;13.50;51.61
40788;BME280;26497;52.494;7.546;2023-05-01T05:12:06;100958.53;;;13.58;51.23
40788;BME280;26497;52.494;7.546;2023-05-01T05:14:35;100958.47;;;13.64;50.94
40788;BME280;26497;52.494;7.546;2023-05-01T05:17:02;100959.28;;;13.77;50.58
40788;BME280;26497;52.494;7.546;2023-05-01T05:19:29;100960.94;;;13.88;50.04
40788;BME280;26497;52.494;7.546;2023-05-01T05:21:56;100956.41;;;13.97;49.60
40788;BME280;26497;52.494;7.546;2023-05-01T05:24:23;100949.28;;;14.03;49.25
40788;BME280;26497;52.494;7.546;2023-05-01T05:26:50;100958.06;;;14.11;48.88
40788;BME280;26497;52.494;7.546;2023-05-01T05:29:17;100956.16;;;14.22;48.19
40788;BME280;26497;52.494;7.546;2023-05-01T05:31:46;100951.63;;;14.32;47.83
40788;BME280;26497;52.494;7.546;2023-05-01T05:34:13;100949.72;;;14.43;47.95
40788;BME280;26497;52.494;7.546;2023-05-01T05:36:40;100945.91;;;14.65;47.70
40788;BME280;26497;52.494;7.546;2023-05-01T05:39:07;100952.56;;;15.01;47.50
40788;BME280;26497;52.494;7.546;2023-05-01T05:41:34;100945.00;;;15.31;46.65
40788;BME280;26497;52.494;7.546;2023-05-01T05:44:01;100950.75;;;15.61;46.36
40788;BME280;26497;52.494;7.546;2023-05-01T05:46:28;100947.53;;;15.96;46.25
40788;BME280;26497;52.494;7.546;2023-05-01T05:48:56;100950.16;;;16.44;45.58
40788;BME280;26497;52.494;7.546;2023-05-01T05:51:23;100949.59;;;16.71;44.08
40788;BME280;26497;52.494;7.546;2023-05-01T05:53:50;100945.97;;;16.75;43.67
40788;BME280;26497;52.494;7.546;2023-05-01T05:56:17;100941.75;;;16.64;42.91
40788;BME280;26497;52.494;7.546;2023-05-01T05:58:44;100943.25;;;16.34;42.34
40788;BME280;26497;52.494;7.546;2023-05-01T06:01:11;100951.97;;;16.42;42.50
40788;BME280;26497;52.494;7.546;2023-05-01T06:03:38;100944.84;;;16.44;42.38
40788;BME280;26497;52.494;7.546;2023-05-01T06:06:06;100940.22;;;16.53;42.14
40788;BME280;26497;52.494;7.546;2023-05-01T06:08:33;100940.38;;;16.86;41.74
40788;BME280;26497;52.494;7.546;2023-05-01T06:11:02;100945.97;;;17.16;41.16
40788;BME280;26497;52.494;7.546;2023-05-01T06:13:29;100942.50;;;17.48;40.33
40788;BME280;26497;52.494;7.546;2023-05-01T06:15:57;100938.56;;;17.65;40.19
40788;BME280;26497;52.494;7.546;2023-05-01T06:18:25;100930.25;;;17.77;39.80
40788;BME280;26497;52.494;7.546;2023-05-01T06:20:52;100934.81;;;18.07;39.30
40788;BME280;26497;52.494;7.546;2023-05-01T06:23:20;100930.16;;;18.47;38.99
40788;BME280;26497;52.494;7.546;2023-05-01T06:25:47;100926.00;;;18.98;38.25
40788;BME280;26497;52.494;7.546;2023-05-01T06:28:14;100929.19;;;19.63;36.67
40788;BME280;26497;52.494;7.546;2023-05-01T06:30:41;100919.56;;;20.59;35.15
40788;BME280;26497;52.494;7.546;2023-05-01T06:33:08;100926.81;;;21.47;33.63
40788;BME280;26497;52.494;7.546;2023-05-01T06:35:37;100915.63;;;22.60;32.11
40788;BME280;26497;52.494;7.546;2023-05-01T06:38:04;100913.78;;;23.73;30.85
40788;BME280;26497;52.494;7.546;2023-05-01T06:40:33;100910.28;;;24.73;28.81
40788;BME280;26497;52.494;7.546;2023-05-01T06:43:00;100909.72;;;25.61;27.19
40788;BME280;26497;52.494;7.546;2023-05-01T06:45:27;100922.38;;;26.05;26.33
40788;BME280;26497;52.494;7.546;2023-05-01T06:47:54;100913.63;;;26.45;25.47
40788;BME280;26497;52.494;7.546;2023-05-01T06:50:21;100908.41;;;26.42;25.85
40788;BME280;26497;52.494;7.546;2023-05-01T06:52:48;100898.09;;;26.20;25.80
40788;BME280;26497;52.494;7.546;2023-05-01T06:55:15;100909.13;;;25.56;26.42
40788;BME280;26497;52.494;7.546;2023-05-01T06:57:43;100895.84;;;25.37;26.97
40788;BME280;26497;52.494;7.546;2023-05-01T07:00:12;100900.78;;;25.60;27.13
40788;BME280;26497;52.494;7.546;2023-05-01T07:02:39;100896.88;;;25.95;26.53
40788;BME280;26497;52.494;7.546;2023-05-01T07:05:07;100894.00;;;26.13;26.29
40788;BME280;26497;52.494;7.546;2023-05-01T07:07:34;100899.78;;;26.06;26.21
40788;BME280;26497;52.494;7.546;2023-05-01T07:10:01;100891.94;;;25.87;26.33
40788;BME280;26497;52.494;7.546;2023-05-01T07:12:28;100898.50;;;25.83;26.03
40788;BME280;26497;52.494;7.546;2023-05-01T07:14:56;100893.09;;;25.69;26.59
40788;BME280;26497;52.494;7.546;2023-05-01T07:17:24;100895.44;;;25.59;27.11
40788;BME280;26497;52.494;7.546;2023-05-01T07:19:51;100897.66;;;25.36;26.76
40788;BME280;26497;52.494;7.546;2023-05-01T07:22:18;100890.00;;;24.82;27.23
40788;BME280;26497;52.494;7.546;2023-05-01T07:24:45;100895.13;;;24.86;27.19
40788;BME280;26497;52.494;7.546;2023-05-01T07:27:12;100894.16;;;25.03;27.31
40788;BME280;26497;52.494;7.546;2023-05-01T07:29:39;100887.88;;;25.19;26.47
40788;BME280;26497;52.494;7.546;2023-05-01T07:32:08;100895.28;;;25.15;26.65
40788;BME280;26497;52.494;7.546;2023-05-01T07:34:40;100888.59;;;24.91;27.03
40788;BME280;26497;52.494;7.546;2023-05-01T07:37:07;100896.81;;;24.39;27.91
40788;BME280;26497;52.494;7.546;2023-05-01T07:39:33;100896.47;;;24.12;28.35
40788;BME280;26497;52.494;7.546;2023-05-01T07:42:00;100893.25;;;23.88;28.31
40788;BME280;26497;52.494;7.546;2023-05-01T07:44:27;100887.38;;;23.97;28.88
40788;BME280;26497;52.494;7.546;2023-05-01T07:46:54;100890.25;;;24.27;28.50
40788;BME280;26497;52.494;7.546;2023-05-01T07:49:23;100880.13;;;24.49;28.26
40788;BME280;26497;52.494;7.546;2023-05-01T07:51:50;100880.09;;;24.82;28.54
40788;BME280;26497;52.494;7.546;2023-05-01T07:54:17;100880.72;;;25.18;26.89
40788;BME280;26497;52.494;7.546;2023-05-01T07:56:46;100875.13;;;25.68;26.32
40788;BME280;26497;52.494;7.546;2023-05-01T07:59:14;100884.16;;;25.52;26.56
40788;BME280;26497;52.494;7.546;2023-05-01T08:01:41;100880.13;;;26.19;25.81
40788;BME280;26497;52.494;7.546;2023-05-01T08:04:09;100872.78;;;26.50;25.67
40788;BME280;26497;52.494;7.546;2023-05-01T08:06:38;100872.34;;;26.56;25.36
40788;BME280;26497;52.494;7.546;2023-05-01T08:09:05;100870.34;;;26.60;25.06
40788;BME280;26497;52.494;7.546;2023-05-01T08:11:31;100871.00;;;27.05;24.61
40788;BME280;26497;52.494;7.546;2023-05-01T08:13:59;100869.84;;;27.10;24.82
40788;BME280;26497;52.494;7.546;2023-05-01T08:16:26;100865.97;;;27.80;23.67
40788;BME280;26497;52.494;7.546;2023-05-01T08:18:53;100867.06;;;28.03;24.11
40788;BME280;26497;52.494;7.546;2023-05-01T08:21:20;100863.88;;;29.34;23.24
40788;BME280;26497;52.494;7.546;2023-05-01T08:23:48;100858.47;;;31.05;21.33
40788;BME280;26497;52.494;7.546;2023-05-01T08:26:16;100858.13;;;31.95;19.92
40788;BME280;26497;52.494;7.546;2023-05-01T08:28:43;100852.31;;;32.30;19.42
40788;BME280;26497;52.494;7.546;2023-05-01T08:31:10;100854.03;;;32.41;20.06
40788;BME280;26497;52.494;7.546;2023-05-01T08:33:37;100856.56;;;31.71;20.75
40788;BME280;26497;52.494;7.546;2023-05-01T08:36:07;100855.84;;;30.82;20.93
40788;BME280;26497;52.494;7.546;2023-05-01T08:38:35;100858.19;;;29.84;21.70
40788;BME280;26497;52.494;7.546;2023-05-01T08:41:03;100851.94;;;28.75;22.60
40788;BME280;26497;52.494;7.546;2023-05-01T08:43:31;100862.66;;;28.15;23.00
40788;BME280;26497;52.494;7.546;2023-05-01T08:45:58;100857.94;;;28.04;23.14
40788;BME280;26497;52.494;7.546;2023-05-01T08:48:28;100852.34;;;27.81;23.20
40788;BME280;26497;52.494;7.546;2023-05-01T08:50:56;100850.03;;;27.22;24.40
40788;BME280;26497;52.494;7.546;2023-05-01T08:53:25;100846.69;;;27.31;24.83
40788;BME280;26497;52.494;7.546;2023-05-01T08:55:53;100851.09;;;28.11;25.13
40788;BME280;26497;52.494;7.546;2023-05-01T08:58:23;100848.94;;;28.67;23.21
40788;BME280;26497;52.494;7.546;2023-05-01T09:00:52;100845.50;;;29.13;22.68
40788;BME280;26497;52.494;7.546;2023-05-01T09:03:21;100854.28;;;29.41;22.31
40788;BME280;26497;52.494;7.546;2023-05-01T09:05:49;100846.06;;;29.30;22.93
40788;BME280;26497;52.494;7.546;2023-05-01T09:08:16;100838.59;;;29.09;23.55
40788;BME280;26497;52.494;7.546;2023-05-01T09:10:47;100845.84;;;29.80;22.50
40788;BME280;26497;52.494;7.546;2023-05-01T09:13:14;100836.34;;;30.66;21.25
40788;BME280;26497;52.494;7.546;2023-05-01T09:15:42;100827.53;;;30.62;21.04
40788;BME280;26497;52.494;7.546;2023-05-01T09:18:10;100833.88;;;30.06;21.54
40788;BME280;26497;52.494;7.546;2023-05-01T09:20:38;100829.94;;;30.33;21.69
40788;BME280;26497;52.494;7.546;2023-05-01T09:23:07;100824.69;;;31.71;21.93
40788;BME280;26497;52.494;7.546;2023-05-01T09:25:34;100821.34;;;32.20;20.22
40788;BME280;26497;52.494;7.546;2023-05-01T09:28:03;100830.88;;;33.06;19.89
40788;BME280;26497;52.494;7.546;2023-05-01T09:30:33;100824.81;;;32.83;19.36
40788;BME280;26497;52.494;7.546;2023-05-01T09:33:09;100824.41;;;33.07;19.60
40788;BME280;26497;52.494;7.546;2023-05-01T09:35:51;100818.94;;;33.27;18.60
40788;BME280;26497;52.494;7.546;2023-05-01T09:38:20;100820.78;;;33.36;18.55
40788;BME280;26497;52.494;7.546;2023-05-01T09:40:47;100821.53;;;32.99;18.52
40788;BME280;26497;52.494;7.546;2023-05-01T09:43:23;100819.19;;;32.64;18.80
40788;BME280;26497;52.494;7.546;2023-05-01T09:46:05;100813.91;;;33.32;18.86
40788;BME280;26497;52.494;7.546;2023-05-01T09:48:35;100816.63;;;33.22;19.16
40788;BME280;26497;52.494;7.546;2023-05-01T09:51:22;100825.91;;;32.10;19.44
40788;BME280;26497;52.494;7.546;2023-05-01T09:53:50;100820.16;;;32.44;19.26
40788;BME280;26497;52.494;7.546;2023-05-01T09:56:18;100822.22;;;32.71;20.13
40788;BME280;26497;52.494;7.546;2023-05-01T09:58:46;100820.84;;;33.06;18.87
40788;BME280;26497;52.494;7.546;2023-05-01T10:01:13;100819.41;;;33.02;18.91
40788;BME280;26497;52.494;7.546;2023-05-01T10:03:43;100812.47;;;33.18;20.64
40788;BME280;26497;52.494;7.546;2023-05-01T10:06:28;100807.88;;;33.18;18.66
40788;BME280;26497;52.494;7.546;2023-05-01T10:08:56;100814.44;;;32.67;19.02
40788;BME280;26497;52.494;7.546;2023-05-01T10:11:23;100811.91;;;32.85;18.51
40788;BME280;26497;52.494;7.546;2023-05-01T10:14:05;100802.25;;;33.49;18.74
40788;BME280;26497;52.494;7.546;2023-05-01T10:16:35;100804.09;;;33.49;18.46
40788;BME280;26497;52.494;7.546;2023-05-01T10:19:05;100798.28;;;33.72;18.31
40788;BME280;26497;52.494;7.546;2023-05-01T10:21:32;100795.75;;;34.26;18.91
40788;BME280;26497;52.494;7.546;2023-05-01T10:24:00;100798.91;;;34.95;17.61
40788;BME280;26497;52.494;7.546;2023-05-01T10:26:29;100794.28;;;35.14;17.46
40788;BME280;26497;52.494;7.546;2023-05-01T10:28:55;100795.41;;;36.09;16.76
40788;BME280;26497;52.494;7.546;2023-05-01T10:31:24;100792.94;;;36.32;16.57
40788;BME280;26497;52.494;7.546;2023-05-01T10:33:53;100792.22;;;37.06;15.81
40788;BME280;26497;52.494;7.546;2023-05-01T10:36:25;100781.53;;;36.10;16.39
40788;BME280;26497;52.494;7.546;2023-05-01T10:38:53;100790.22;;;35.71;17.26
40788;BME280;26497;52.494;7.546;2023-05-01T10:42:00;100780.25;;;35.62;17.18
40788;BME280;26497;52.494;7.546;2023-05-01T10:44:29;100785.25;;;35.22;16.86
40788;BME280;26497;52.494;7.546;2023-05-01T10:46:56;100789.28;;;35.09;16.91
40788;BME280;26497;52.494;7.546;2023-05-01T10:49:23;100778.75;;;36.02;16.73
40788;BME280;26497;52.494;7.546;2023-05-01T10:52:01;100777.53;;;36.56;17.62
40788;BME280;26497;52.494;7.546;2023-05-01T10:54:28;100781.19;;;36.65;17.07
40788;BME280;26497;52.494;7.546;2023-05-01T10:56:57;100775.84;;;36.80;16.24
40788;BME280;26497;52.494;7.546;2023-05-01T10:59:25;100776.88;;;36.79;16.96
40788;BME280;26497;52.494;7.546;2023-05-01T11:01:53;100777.47;;;35.09;17.00
40788;BME280;26497;52.494;7.546;2023-05-01T11:04:46;100769.72;;;35.49;16.64
40788;BME280;26497;52.494;7.546;2023-05-01T11:07:17;100766.44;;;35.80;16.63
40788;BME280;26497;52.494;7.546;2023-05-01T11:09:46;100771.31;;;36.29;17.79
40788;BME280;26497;52.494;7.546;2023-05-01T11:12:51;100764.19;;;36.69;15.87
40788;BME280;26497;52.494;7.546;2023-05-01T11:15:31;100764.19;;;36.69;16.89
40788;BME280;26497;52.494;7.546;2023-05-01T11:17:59;100766.97;;;35.83;16.79
40788;BME280;26497;52.494;7.546;2023-05-01T11:20:48;100767.38;;;35.09;17.38
40788;BME280;26497;52.494;7.546;2023-05-01T11:23:21;100760.47;;;34.51;17.63
40788;BME280;26497;52.494;7.546;2023-05-01T11:26:01;100757.56;;;34.06;17.17
40788;BME280;26497;52.494;7.546;2023-05-01T11:28:30;100753.44;;;34.84;17.88
40788;BME280;26497;52.494;7.546;2023-05-01T11:30:58;100753.28;;;34.86;18.00
40788;BME280;26497;52.494;7.546;2023-05-01T11:33:30;100753.34;;;34.76;18.24
40788;BME280;26497;52.494;7.546;2023-05-01T11:35:58;100750.81;;;34.29;19.22
40788;BME280;26497;52.494;7.546;2023-05-01T11:38:27;100756.47;;;34.81;18.21
40788;BME280;26497;52.494;7.546;2023-05-01T11:40:58;100754.47;;;35.89;17.48
40788;BME280;26497;52.494;7.546;2023-05-01T11:43:26;100744.59;;;35.62;16.65
40788;BME280;26497;52.494;7.546;2023-05-01T11:45:53;100742.78;;;36.13;16.67
40788;BME280;26497;52.494;7.546;2023-05-01T11:48:28;100732.34;;;35.82;16.33
40788;BME280;26497;52.494;7.546;2023-05-01T11:50:55;100733.34;;;36.16;16.97
40788;BME280;26497;52.494;7.546;2023-05-01T11:53:22;100731.28;;;35.75;16.90
40788;BME280;26497;52.494;7.546;2023-05-01T11:55:51;100730.03;;;35.08;17.18
40788;BME280;26497;52.494;7.546;2023-05-01T11:58:30;100728.72;;;34.58;17.97
40788;BME280;26497;52.494;7.546;2023-05-01T12:00:58;100730.97;;;34.45;18.65
40788;BME280;26497;52.494;7.546;2023-05-01T12:03:25;100733.97;;;34.51;17.70
40788;BME280;26497;52.494;7.546;2023-05-01T12:05:52;100723.78;;;33.97;18.37
40788;BME280;26497;52.494;7.546;2023-05-01T12:08:21;100733.06;;;33.29;18.40
40788;BME280;26497;52.494;7.546;2023-05-01T12:10:51;100738.19;;;32.04;19.79
40788;BME280;26497;52.494;7.546;2023-05-01T12:13:20;100726.91;;;30.83;21.05
40788;BME280;26497;52.494;7.546;2023-05-01T12:15:51;100731.66;;;30.70;21.28
40788;BME280;26497;52.494;7.546;2023-05-01T12:18:19;100723.28;;;30.62;21.61
40788;BME280;26497;52.494;7.546;2023-05-01T12:20:48;100732.78;;;31.00;21.72
40788;BME280;26497;52.494;7.546;2023-05-01T12:23:18;100732.41;;;31.88;21.19
40788;BME280;26497;52.494;7.546;2023-05-01T12:25:46;100730.16;;;32.03;20.02
40788;BME280;26497;52.494;7.546;2023-05-01T12:28:16;100725.88;;;33.38;19.50
40788;BME280;26497;52.494;7.546;2023-05-01T12:30:45;100725.78;;;33.67;19.03
40788;BME280;26497;52.494;7.546;2023-05-01T12:33:14;100726.22;;;34.01;18.34
40788;BME280;26497;52.494;7.546;2023-05-01T12:35:43;100724.66;;;34.44;18.00
40788;BME280;26497;52.494;7.546;2023-05-01T12:38:13;100713.38;;;35.54;17.42
40788;BME280;26497;52.494;7.546;2023-05-01T12:40:52;100718.88;;;35.02;18.24
40788;BME280;26497;52.494;7.546;2023-05-01T12:43:29;100712.28;;;34.76;18.20
40788;BME280;26497;52.494;7.546;2023-05-01T12:45:57;100713.44;;;34.19;17.42
40788;BME280;26497;52.494;7.546;2023-05-01T12:48:24;100717.22;;;34.54;18.47
40788;BME280;26497;52.494;7.546;2023-05-01T12:50:51;100719.88;;;35.01;17.58
40788;BME280;26497;52.494;7.546;2023-05-01T12:53:20;100717.13;;;35.01;18.25
40788;BME280;26497;52.494;7.546;2023-05-01T12:55:50;100721.22;;;34.42;16.97
40788;BME280;26497;52.494;7.546;2023-05-01T12:58:17;100723.38;;;34.38;17.96
40788;BME280;26497;52.494;7.546;2023-05-01T13:00:48;100720.97;;;34.53;17.98